Time;durP1;ratioP1;P1;durP2;ratioP2;P2;SDS_P1;SDS_P2;PMS_P1;PMS_P2;Temp;Humidity;BMP_temperature;BMP_pressure;BME280_temperature;BME280_humidity;BME280_pressure;Samples;Min_cycle;Max_cycle;Signal;HPM_P1;HPM_P2
2021/11/24 00:01:54;;;;;;;14.83;7.60;;;;;;;-3.05;100.00;97072.53;5025773;28;20039;-74
2021/11/24 00:04:19;;;;;;;13.33;7.10;;;;;;;-3.11;100.00;97071.03;5007794;28;20471;-74
2021/11/24 00:06:45;;;;;;;11.63;6.97;;;;;;;-3.16;100.00;97072.94;5039790;28;20448;-74
2021/11/24 00:09:11;;;;;;;13.10;6.37;;;;;;;-3.23;100.00;97069.72;5007597;28;20109;-73
2021/11/24 00:11:36;;;;;;;12.93;7.07;;;;;;;-3.26;100.00;97063.84;5027287;28;20471;-73
2021/11/24 00:14:02;;;;;;;14.80;7.93;;;;;;;-3.23;100.00;97067.16;5020661;28;20120;-74
2021/11/24 00:16:28;;;;;;;11.03;7.17;;;;;;;-3.21;100.00;97060.25;5026693;28;20045;-74
2021/11/24 00:18:53;;;;;;;11.47;6.93;;;;;;;-3.31;100.00;97058.88;5019943;28;20078;-74
2021/11/24 00:21:19;;;;;;;12.93;7.30;;;;;;;-3.32;100.00;97059.75;5038405;28;20041;-74
2021/11/24 00:23:46;;;;;;;13.33;7.07;;;;;;;-3.26;100.00;97049.25;5030375;28;20512;-74
2021/11/24 00:26:12;;;;;;;12.63;8.03;;;;;;;-3.39;100.00;97048.84;5033607;28;20040;-73
2021/11/24 00:28:37;;;;;;;13.00;7.30;;;;;;;-3.37;100.00;97051.38;5035132;28;21006;-74
2021/11/24 00:31:03;;;;;;;13.20;6.53;;;;;;;-3.40;100.00;97052.31;5030034;28;20045;-74
2021/11/24 00:33:29;;;;;;;12.83;7.23;;;;;;;-3.38;100.00;97042.00;5018425;28;20076;-74
2021/11/24 00:35:55;;;;;;;13.13;7.23;;;;;;;-3.39;100.00;97045.44;5026265;28;20053;-73
2021/11/24 00:38:21;;;;;;;12.30;7.13;;;;;;;-3.33;100.00;97048.63;5035266;28;20024;-73
2021/11/24 00:40:47;;;;;;;16.47;7.53;;;;;;;-3.30;100.00;97049.44;5017223;28;20702;-74
2021/11/24 00:43:12;;;;;;;11.80;6.67;;;;;;;-3.28;100.00;97042.53;5024331;28;20458;-73
2021/11/24 00:45:38;;;;;;;14.07;7.57;;;;;;;-3.34;100.00;97051.28;5010685;28;20378;-74
2021/11/24 00:48:05;;;;;;;14.33;8.07;;;;;;;-3.38;100.00;97044.56;5037670;28;20013;-73
2021/11/24 00:50:32;;;;;;;13.37;7.57;;;;;;;-3.40;100.00;97044.59;5018615;28;20042;-74
2021/11/24 00:52:57;;;;;;;14.33;8.03;;;;;;;-3.35;100.00;97044.47;5032855;28;21107;-74
2021/11/24 00:55:23;;;;;;;15.37;7.73;;;;;;;-3.30;100.00;97052.00;5002481;28;20555;-74
2021/11/24 00:57:49;;;;;;;12.77;7.87;;;;;;;-3.26;100.00;97051.00;5025563;28;20105;-73
2021/11/24 01:00:17;;;;;;;13.87;8.47;;;;;;;-3.32;100.00;97052.03;5028617;28;20041;-74
2021/11/24 01:02:43;;;;;;;14.17;8.27;;;;;;;-3.30;100.00;97044.28;5023849;28;20372;-74
2021/11/24 01:05:10;;;;;;;15.27;7.47;;;;;;;-3.30;100.00;97042.56;5017299;28;20486;-74
2021/11/24 01:07:36;;;;;;;16.60;7.70;;;;;;;-3.29;100.00;97041.66;5036769;28;20533;-73
2021/11/24 01:10:05;;;;;;;14.37;8.33;;;;;;;-3.25;100.00;97038.09;5030457;28;20513;-74
2021/11/24 01:12:31;;;;;;;12.93;7.53;;;;;;;-3.23;100.00;97035.47;5027338;28;20029;-74
2021/11/24 01:14:56;;;;;;;13.13;8.80;;;;;;;-3.20;100.00;97040.50;5023490;28;20432;-74
2021/11/24 01:17:22;;;;;;;15.57;8.73;;;;;;;-3.22;100.00;97039.69;5027818;28;20555;-74
2021/11/24 01:19:48;;;;;;;17.37;8.47;;;;;;;-3.20;100.00;97033.63;5027273;28;20568;-74
2021/11/24 01:22:14;;;;;;;15.23;8.37;;;;;;;-3.17;100.00;97032.66;5027663;28;20108;-74
2021/11/24 01:24:40;;;;;;;13.87;8.87;;;;;;;-3.17;100.00;97030.94;5040469;28;20067;-74
2021/11/24 01:27:06;;;;;;;17.90;8.87;;;;;;;-3.19;100.00;97032.72;5020042;28;20059;-73
2021/11/24 01:29:32;;;;;;;13.47;9.00;;;;;;;-3.21;100.00;97037.09;5033645;28;20473;-74
2021/11/24 01:31:58;;;;;;;14.27;7.83;;;;;;;-3.22;100.00;97031.97;5005642;28;20494;-74
2021/11/24 01:34:24;;;;;;;14.40;8.80;;;;;;;-3.25;100.00;97032.97;5025911;28;20525;-73
2021/11/24 01:36:50;;;;;;;14.23;8.07;;;;;;;-3.31;100.00;97030.59;5025576;28;20021;-74
2021/11/24 01:39:15;;;;;;;17.23;8.93;;;;;;;-3.34;100.00;97028.97;5035421;28;20057;-74
2021/11/24 01:41:41;;;;;;;13.97;8.07;;;;;;;-3.32;100.00;97026.31;5034890;28;20114;-74
2021/11/24 01:44:18;;;;;;;18.03;9.33;;;;;;;-3.35;100.00;97019.59;5030415;28;20410;-73
2021/11/24 01:46:53;;;;;;;16.90;9.10;;;;;;;-3.35;100.00;97017.00;5025909;28;20120;-74
2021/11/24 01:49:20;;;;;;;17.70;9.20;;;;;;;-3.37;100.00;97017.94;5030930;28;21039;-74
2021/11/24 01:51:46;;;;;;;20.23;9.47;;;;;;;-3.39;100.00;97018.00;5028707;28;20515;-74
2021/11/24 01:54:13;;;;;;;13.97;8.50;;;;;;;-3.45;100.00;97012.25;5014060;28;20444;-74
2021/11/24 01:56:39;;;;;;;15.67;8.40;;;;;;;-3.42;100.00;97013.00;5034180;28;20075;-74
2021/11/24 01:59:07;;;;;;;15.17;9.10;;;;;;;-3.47;100.00;97014.03;5011574;28;20627;-73
2021/11/24 02:01:33;;;;;;;14.43;8.40;;;;;;;-3.49;100.00;97018.38;5031887;28;20574;-74
2021/11/24 02:03:58;;;;;;;16.03;9.03;;;;;;;-3.51;100.00;97009.91;5014587;28;20470;-73
2021/11/24 02:06:24;;;;;;;18.77;9.47;;;;;;;-3.53;100.00;97014.25;5030181;28;20116;-74
2021/11/24 02:08:50;;;;;;;19.03;9.50;;;;;;;-3.56;100.00;97010.03;5026725;28;20467;-74
2021/11/24 02:11:15;;;;;;;17.13;10.67;;;;;;;-3.50;100.00;96996.97;5032687;28;20033;-74
2021/11/24 02:13:41;;;;;;;15.90;9.33;;;;;;;-3.53;100.00;96993.69;5034286;28;20474;-73
2021/11/24 02:16:07;;;;;;;15.70;9.43;;;;;;;-3.54;100.00;96992.00;5026968;28;20921;-74
2021/11/24 02:18:32;;;;;;;15.30;9.40;;;;;;;-3.50;100.00;96985.84;5031016;28;20049;-73
2021/11/24 02:20:58;;;;;;;15.57;10.07;;;;;;;-3.28;100.00;96983.34;5006212;28;20029;-74
2021/11/24 02:23:24;;;;;;;16.77;10.00;;;;;;;-3.29;100.00;96982.50;5030904;28;20626;-74
2021/11/24 02:25:49;;;;;;;25.60;10.60;;;;;;;-3.29;100.00;96977.34;5014210;28;20411;-74
2021/11/24 02:28:16;;;;;;;17.87;10.07;;;;;;;-3.37;100.00;96974.22;5032907;28;20031;-73
2021/11/24 02:30:42;;;;;;;15.93;9.10;;;;;;;-3.40;100.00;96979.50;5027833;28;20485;-73
2021/11/24 02:33:08;;;;;;;16.17;9.43;;;;;;;-3.42;100.00;96970.97;5031731;28;20452;-74
2021/11/24 02:35:34;;;;;;;16.87;10.27;;;;;;;-3.47;100.00;96967.75;5021199;28;20467;-74
2021/11/24 02:38:03;;;;;;;16.67;8.87;;;;;;;-3.46;100.00;96964.28;5017377;28;20436;-73
2021/11/24 02:40:33;;;;;;;17.33;9.73;;;;;;;-3.48;100.00;96961.78;5027938;28;20033;-73
2021/11/24 02:42:59;;;;;;;17.20;9.47;;;;;;;-3.52;100.00;96960.22;5026334;28;20459;-73
2021/11/24 02:45:26;;;;;;;14.97;9.40;;;;;;;-3.49;100.00;96959.25;5021360;28;20985;-73
2021/11/24 02:47:52;;;;;;;17.17;11.33;;;;;;;-3.50;100.00;96957.56;5017503;28;20505;-74
2021/11/24 02:50:17;;;;;;;15.67;9.57;;;;;;;-3.60;100.00;96952.75;5020768;28;21039;-73
2021/11/24 02:52:43;;;;;;;17.83;10.77;;;;;;;-3.59;100.00;96959.59;5026045;28;20575;-73
2021/11/24 02:55:09;;;;;;;18.17;10.87;;;;;;;-3.63;100.00;96950.28;5036210;28;20064;-74
2021/11/24 02:57:40;;;;;;;22.33;12.03;;;;;;;-3.56;100.00;96954.31;5028506;28;20680;-74
2021/11/24 03:00:20;;;;;;;28.37;14.27;;;;;;;-3.48;100.00;96946.34;5027621;28;20443;-74
2021/11/24 03:02:47;;;;;;;21.83;12.37;;;;;;;-3.53;100.00;96949.97;5024272;28;20472;-73
2021/11/24 03:05:16;;;;;;;31.80;14.77;;;;;;;-3.43;100.00;96948.75;5025679;28;20846;-74
2021/11/24 03:07:42;;;;;;;29.03;16.77;;;;;;;-3.30;100.00;96956.84;5016664;28;20480;-74
2021/11/24 03:10:09;;;;;;;35.77;16.97;;;;;;;-3.24;100.00;96956.63;5029152;28;20510;-74
2021/11/24 03:12:36;;;;;;;31.10;17.10;;;;;;;-3.19;100.00;96950.38;5023352;28;20564;-74
2021/11/24 03:15:03;;;;;;;40.20;18.73;;;;;;;-3.10;100.00;96942.34;5026896;28;20467;-73
2021/11/24 03:17:28;;;;;;;34.10;19.07;;;;;;;-3.09;100.00;96938.84;5035456;28;20443;-74
2021/11/24 03:19:57;;;;;;;37.40;19.70;;;;;;;-2.97;100.00;96940.13;5009369;28;20463;-74
2021/11/24 03:22:22;;;;;;;35.87;18.00;;;;;;;-2.94;100.00;96942.59;5022777;28;20036;-73
2021/11/24 03:24:56;;;;;;;36.03;17.67;;;;;;;-2.92;100.00;96940.81;5014856;28;20805;-74
2021/11/24 03:27:23;;;;;;;46.27;20.10;;;;;;;-2.79;100.00;96943.72;5035398;28;20500;-74
2021/11/24 03:29:49;;;;;;;42.07;18.70;;;;;;;-2.77;100.00;96939.34;5026174;28;20453;-74
2021/11/24 03:32:14;;;;;;;43.17;19.67;;;;;;;-2.71;100.00;96936.53;5021316;28;20484;-75
2021/11/24 03:34:40;;;;;;;43.53;19.87;;;;;;;-2.71;100.00;96930.56;5000910;28;20045;-74
2021/11/24 03:37:06;;;;;;;41.43;18.70;;;;;;;-2.70;100.00;96935.63;5027490;28;20021;-74
2021/11/24 03:39:31;;;;;;;48.60;20.63;;;;;;;-2.64;100.00;96926.84;5014998;28;20113;-74
2021/11/24 03:41:57;;;;;;;45.80;20.77;;;;;;;-2.66;100.00;96929.47;5009698;28;20139;-74
2021/11/24 03:44:23;;;;;;;39.10;19.50;;;;;;;-2.65;100.00;96933.72;5026494;28;20029;-74
2021/11/24 03:46:48;;;;;;;50.77;21.73;;;;;;;-2.68;100.00;96927.88;5030731;28;20045;-73
2021/11/24 03:49:14;;;;;;;47.57;21.67;;;;;;;-2.67;100.00;96935.53;5019802;28;20029;-73
2021/11/24 03:51:40;;;;;;;44.13;20.83;;;;;;;-2.61;100.00;96926.72;5016372;28;20599;-74
2021/11/24 03:54:06;;;;;;;44.00;21.87;;;;;;;-2.53;100.00;96927.22;5033001;28;20611;-74
2021/11/24 03:56:31;;;;;;;43.47;21.93;;;;;;;-2.54;100.00;96925.56;5016790;28;20064;-73
2021/11/24 03:58:57;;;;;;;50.17;21.43;;;;;;;-2.50;100.00;96921.13;5012787;28;20563;-74
2021/11/24 04:01:24;;;;;;;44.90;20.50;;;;;;;-2.50;100.00;96932.25;5024347;28;20565;-74
2021/11/24 04:03:49;;;;;;;50.63;22.17;;;;;;;-2.51;100.00;96927.19;5023858;28;20075;-73
2021/11/24 04:06:15;;;;;;;40.67;21.10;;;;;;;-2.54;100.00;96924.72;5039852;28;20479;-73
2021/11/24 04:08:41;;;;;;;51.00;20.73;;;;;;;-2.52;100.00;96918.59;5036426;28;20390;-74
2021/11/24 04:11:07;;;;;;;51.27;23.13;;;;;;;-2.47;100.00;96915.84;5033316;28;20067;-74
2021/11/24 04:13:32;;;;;;;50.47;23.30;;;;;;;-2.47;100.00;96915.84;5029436;28;20065;-74
2021/11/24 04:15:58;;;;;;;56.50;22.87;;;;;;;-2.48;100.00;96916.72;5009369;28;20036;-74
2021/11/24 04:18:24;;;;;;;54.27;21.87;;;;;;;-2.43;100.00;96914.81;5012290;28;20068;-74
2021/11/24 04:20:50;;;;;;;60.83;23.23;;;;;;;-2.40;100.00;96917.28;5037150;28;20087;-74
2021/11/24 04:23:15;;;;;;;59.00;24.00;;;;;;;-2.38;100.00;96910.34;5023368;28;20101;-73
2021/11/24 04:25:41;;;;;;;56.47;21.33;;;;;;;-2.31;100.00;96916.91;5012580;28;20038;-75
2021/11/24 04:28:07;;;;;;;62.37;23.33;;;;;;;-2.29;100.00;96912.50;5015161;28;20083;-74
2021/11/24 04:30:33;;;;;;;60.13;21.53;;;;;;;-2.28;100.00;96906.47;5036883;28;20096;-75
2021/11/24 04:32:58;;;;;;;52.67;21.37;;;;;;;-2.22;100.00;96905.34;5037943;28;20580;-74
2021/11/24 04:35:24;;;;;;;60.03;21.20;;;;;;;-2.24;100.00;96908.00;5033188;28;20540;-76
2021/11/24 04:37:50;;;;;;;55.03;20.47;;;;;;;-2.24;100.00;96902.03;4997606;28;20057;-74
2021/11/24 04:40:16;;;;;;;54.53;21.83;;;;;;;-2.22;100.00;96897.63;5029322;28;20434;-74
2021/11/24 04:42:43;;;;;;;52.73;19.10;;;;;;;-2.12;100.00;96893.75;5005415;28;20044;-74
2021/11/24 04:45:10;;;;;;;48.07;18.60;;;;;;;-2.08;100.00;96894.47;5018908;28;20033;-74
2021/11/24 04:47:35;;;;;;;47.13;18.10;;;;;;;-2.11;100.00;96887.72;5011043;28;20440;-74
2021/11/24 04:50:02;;;;;;;42.43;18.53;;;;;;;-2.03;100.00;96885.63;5007170;28;20468;-74
2021/11/24 04:52:27;;;;;;;47.37;17.73;;;;;;;-2.01;100.00;96886.41;5011417;28;20037;-74
2021/11/24 04:54:53;;;;;;;37.83;16.10;;;;;;;-1.95;100.00;96885.28;5010755;28;20452;-74
2021/11/24 04:57:18;;;;;;;48.10;19.80;;;;;;;-1.94;100.00;96887.00;5023558;28;20021;-74
2021/11/24 04:59:45;;;;;;;45.60;20.37;;;;;;;-1.88;100.00;96884.13;5028380;28;20062;-74
2021/11/24 05:02:11;;;;;;;46.90;16.83;;;;;;;-1.88;100.00;96878.97;5028418;28;20080;-74
2021/11/24 05:04:37;;;;;;;36.90;15.57;;;;;;;-1.81;100.00;96884.69;5015844;28;20464;-74
2021/11/24 05:07:03;;;;;;;46.70;20.07;;;;;;;-1.83;100.00;96882.19;5035147;28;20032;-74
2021/11/24 05:09:28;;;;;;;39.63;18.20;;;;;;;-1.83;100.00;96884.78;5008018;28;20474;-74
2021/11/24 05:11:54;;;;;;;35.73;15.57;;;;;;;-1.78;100.00;96876.81;5006548;28;20033;-74
2021/11/24 05:14:25;;;;;;;33.33;15.20;;;;;;;-1.74;100.00;96881.78;4998145;28;20029;-74
2021/11/24 05:16:52;;;;;;;30.87;15.07;;;;;;;-1.66;100.00;96871.97;5018624;28;20029;-74
2021/11/24 05:19:19;;;;;;;33.77;15.63;;;;;;;-1.66;100.00;96882.28;5024242;28;20436;-73
2021/11/24 05:21:51;;;;;;;34.73;15.80;;;;;;;-1.64;100.00;96882.22;5017607;28;20465;-74
2021/11/24 05:24:19;;;;;;;31.67;14.10;;;;;;;-1.62;100.00;96879.56;5018008;28;20459;-73
2021/11/24 05:26:45;;;;;;;41.37;14.90;;;;;;;-1.55;100.00;96880.97;5020821;28;20544;-74
2021/11/24 05:29:11;;;;;;;30.27;14.70;;;;;;;-1.53;100.00;96880.00;5022295;28;20472;-74
2021/11/24 05:31:37;;;;;;;34.63;17.00;;;;;;;-1.51;100.00;96879.91;5016111;28;20496;-74
2021/11/24 05:34:03;;;;;;;29.40;14.80;;;;;;;-1.48;100.00;96872.88;5024059;28;20472;-73
2021/11/24 05:36:30;;;;;;;32.43;15.67;;;;;;;-1.38;100.00;96878.44;5027328;28;20055;-75
2021/11/24 05:38:56;;;;;;;30.80;16.00;;;;;;;-1.45;100.00;96877.06;5021041;28;20420;-75
2021/11/24 05:41:21;;;;;;;31.53;15.80;;;;;;;-1.42;100.00;96879.50;5024848;28;20468;-75
2021/11/24 05:43:48;;;;;;;29.30;14.90;;;;;;;-1.44;100.00;96873.59;5023038;28;20077;-75
2021/11/24 05:46:42;;;;;;;30.13;16.03;;;;;;;-1.42;100.00;96869.19;5030769;28;20083;-75
2021/11/24 05:49:08;;;;;;;28.55;14.15;;;;;;;-1.35;100.00;96867.97;5023769;28;21082;-75
2021/11/24 05:51:37;;;;;;;29.53;14.90;;;;;;;-1.35;100.00;96860.25;5014877;28;20005;-74
2021/11/24 05:54:04;;;;;;;30.20;15.83;;;;;;;-1.39;100.00;96866.47;5025660;28;20498;-74
2021/11/24 05:56:33;;;;;;;27.27;16.20;;;;;;;-1.39;100.00;96870.78;5042812;28;20994;-73
2021/11/24 05:59:00;;;;;;;27.60;14.50;;;;;;;-1.40;100.00;96864.78;5027263;28;20567;-74
2021/11/24 06:01:26;;;;;;;30.20;14.90;;;;;;;-1.31;100.00;96854.06;5006672;28;20488;-74
2021/11/24 06:03:52;;;;;;;31.87;16.10;;;;;;;-1.30;100.00;96852.31;5010420;28;20541;-74
2021/11/24 06:06:17;;;;;;;29.03;16.33;;;;;;;-1.28;100.00;96853.88;5006768;28;20044;-73
2021/11/24 06:08:43;;;;;;;29.07;16.10;;;;;;;-1.24;100.00;96854.56;5024432;28;20021;-73
2021/11/24 06:11:09;;;;;;;29.97;15.83;;;;;;;-1.22;100.00;96863.94;5021117;28;20042;-73
2021/11/24 06:13:34;;;;;;;26.60;15.47;;;;;;;-1.31;100.00;96854.06;5015128;28;20033;-73
2021/11/24 06:16:00;;;;;;;28.67;14.80;;;;;;;-1.22;100.00;96848.44;5028716;28;20508;-73
2021/11/24 06:18:25;;;;;;;27.33;15.57;;;;;;;-1.21;100.00;96847.56;5034043;28;20045;-73
2021/11/24 06:20:51;;;;;;;29.23;16.07;;;;;;;-1.09;100.00;96847.88;5022603;28;20109;-73
2021/11/24 06:23:17;;;;;;;30.13;15.97;;;;;;;-1.00;100.00;96848.28;5010089;28;20052;-73
2021/11/24 06:25:43;;;;;;;27.37;15.03;;;;;;;-1.15;100.00;96843.84;5018147;28;20592;-74
2021/11/24 06:28:09;;;;;;;24.80;13.80;;;;;;;-1.12;100.00;96837.69;5009049;28;20053;-73
2021/11/24 06:30:34;;;;;;;26.97;14.03;;;;;;;-1.09;100.00;96837.56;5018976;28;20526;-74
2021/11/24 06:33:00;;;;;;;26.40;14.50;;;;;;;-1.08;100.00;96831.47;5033362;28;20033;-73
2021/11/24 06:35:26;;;;;;;27.53;14.70;;;;;;;-1.07;100.00;96834.00;5005711;28;20040;-73
2021/11/24 06:37:52;;;;;;;26.20;15.67;;;;;;;-1.04;100.00;96841.59;5036331;28;20880;-73
2021/11/24 06:40:18;;;;;;;23.57;13.73;;;;;;;-0.98;100.00;96837.88;5035852;28;20028;-73
2021/11/24 06:42:44;;;;;;;27.67;15.13;;;;;;;-1.05;100.00;96839.91;5045946;28;20033;-74
2021/11/24 06:45:11;;;;;;;25.17;14.80;;;;;;;-0.97;100.00;96837.81;5027444;28;20038;-73
2021/11/24 06:47:38;;;;;;;25.47;15.80;;;;;;;-0.98;100.00;96830.13;5024295;28;20464;-73
2021/11/24 06:50:06;;;;;;;26.87;16.40;;;;;;;-0.97;100.00;96840.38;5028420;28;20463;-74
2021/11/24 06:52:32;;;;;;;28.40;15.27;;;;;;;-1.10;100.00;96841.88;5012061;28;20484;-73
2021/11/24 06:54:57;;;;;;;30.23;15.87;;;;;;;-1.06;100.00;96843.41;5035536;28;20451;-73
2021/11/24 06:57:23;;;;;;;25.80;14.97;;;;;;;-1.06;100.00;96845.16;5014181;28;20040;-73
2021/11/24 06:59:49;;;;;;;26.17;15.33;;;;;;;-0.94;100.00;96839.38;5024377;28;20106;-73
2021/11/24 07:02:15;;;;;;;25.13;14.23;;;;;;;-0.96;100.00;96833.47;5021826;28;20048;-73
2021/11/24 07:04:40;;;;;;;25.63;16.10;;;;;;;-0.91;100.00;96836.66;5026454;28;20036;-73
2021/11/24 07:07:06;;;;;;;25.53;14.67;;;;;;;-0.96;100.00;96838.63;5008420;28;20821;-73
2021/11/24 07:09:33;;;;;;;24.03;14.00;;;;;;;-0.86;100.00;96842.44;5024120;28;20069;-75
2021/11/24 07:11:59;;;;;;;26.97;16.53;;;;;;;-0.98;100.00;96845.59;5027394;28;21243;-73
2021/11/24 07:14:26;;;;;;;25.50;14.43;;;;;;;-0.96;100.00;96843.81;5010698;28;20069;-73
2021/11/24 07:16:51;;;;;;;22.90;14.33;;;;;;;-0.93;100.00;96842.81;5024089;28;20041;-73
2021/11/24 07:19:21;;;;;;;31.97;16.17;;;;;;;-0.88;100.00;96835.69;5019949;28;20600;-73
2021/11/24 07:21:48;;;;;;;24.20;13.83;;;;;;;-0.92;100.00;96831.56;5008445;28;20091;-74
2021/11/24 07:24:18;;;;;;;24.97;16.00;;;;;;;-0.86;100.00;96842.44;5021862;28;21221;-73
2021/11/24 07:26:45;;;;;;;25.57;15.43;;;;;;;-0.82;100.00;96841.38;5022221;28;21040;-73
2021/11/24 07:29:12;;;;;;;22.80;14.83;;;;;;;-0.80;100.00;96837.00;5010104;28;20481;-73
2021/11/24 07:31:37;;;;;;;24.23;16.27;;;;;;;-0.77;100.00;96838.56;5022018;28;20452;-73
2021/11/24 07:34:03;;;;;;;23.90;15.47;;;;;;;-0.75;100.00;96837.59;5020446;28;21075;-74
2021/11/24 07:36:29;;;;;;;28.00;14.67;;;;;;;-0.69;100.00;96833.03;5010100;28;20060;-72
2021/11/24 07:38:55;;;;;;;22.43;14.00;;;;;;;-0.66;100.00;96832.91;5024563;28;20013;-72
2021/11/24 07:41:20;;;;;;;25.23;16.50;;;;;;;-0.70;100.00;96834.78;5017038;28;20121;-73
2021/11/24 07:43:46;;;;;;;24.53;13.97;;;;;;;-0.71;100.00;96836.50;5020538;28;20063;-73
2021/11/24 07:46:12;;;;;;;22.57;14.73;;;;;;;-0.74;100.00;96823.78;5018146;28;20037;-72
2021/11/24 07:48:38;;;;;;;22.97;14.90;;;;;;;-0.64;100.00;96818.13;5005828;28;20026;-72
2021/11/24 07:51:03;;;;;;;22.13;14.70;;;;;;;-0.57;100.00;96822.94;5029578;28;20041;-73
2021/11/24 07:53:29;;;;;;;23.00;14.57;;;;;;;-0.53;100.00;96818.47;5025453;28;20698;-73
2021/11/24 07:55:55;;;;;;;22.07;13.87;;;;;;;-0.58;100.00;96820.41;5016665;28;20033;-72
2021/11/24 07:58:20;;;;;;;25.97;15.03;;;;;;;-0.63;100.00;96815.50;5036845;28;20048;-72
2021/11/24 08:00:47;;;;;;;21.03;14.37;;;;;;;-0.51;100.00;96814.03;5033319;28;20037;-72
2021/11/24 08:03:13;;;;;;;19.63;13.33;;;;;;;-0.51;100.00;96808.88;5036926;28;20104;-72
2021/11/24 08:05:39;;;;;;;18.53;12.43;;;;;;;-0.55;100.00;96809.94;5020051;28;20475;-73
2021/11/24 08:08:05;;;;;;;22.37;13.87;;;;;;;-0.51;100.00;96811.44;5033875;28;20460;-73
2021/11/24 08:10:31;;;;;;;21.13;14.10;;;;;;;-0.58;100.00;96807.50;5031199;28;20025;-72
2021/11/24 08:12:57;;;;;;;24.30;16.63;;;;;;;-0.52;100.00;96805.44;5031950;28;20097;-72
2021/11/24 08:15:23;;;;;;;22.47;14.37;;;;;;;-0.54;100.00;96803.84;5031829;28;20440;-72
2021/11/24 08:17:49;;;;;;;24.13;16.07;;;;;;;-0.50;100.00;96805.41;5029394;28;20244;-73
2021/11/24 08:20:15;;;;;;;19.47;13.03;;;;;;;-0.61;100.00;96784.41;5031402;28;20954;-72
2021/11/24 08:22:42;;;;;;;18.73;12.63;;;;;;;-0.55;100.00;96797.84;5019259;28;20090;-72
2021/11/24 08:25:08;;;;;;;20.17;12.50;;;;;;;-0.56;100.00;96785.03;5029830;28;20696;-73
2021/11/24 08:27:36;;;;;;;20.43;13.27;;;;;;;-0.49;100.00;96786.38;5008323;28;20985;-72
2021/11/24 08:30:04;;;;;;;18.30;12.53;;;;;;;-0.49;100.00;96782.03;5017490;28;20452;-72
2021/11/24 08:32:30;;;;;;;23.17;13.47;;;;;;;-0.50;100.00;96787.31;5017640;28;20461;-72
2021/11/24 08:34:56;;;;;;;21.60;13.87;;;;;;;-0.49;100.00;96778.63;5022072;28;21054;-73
2021/11/24 08:37:21;;;;;;;21.43;13.63;;;;;;;-0.51;100.00;96775.28;5035204;28;20025;-72
2021/11/24 08:39:48;;;;;;;21.30;13.43;;;;;;;-0.57;100.00;96773.88;5035128;28;20049;-72
2021/11/24 08:42:14;;;;;;;20.37;13.27;;;;;;;-0.60;100.00;96778.34;5029796;28;20052;-72
2021/11/24 08:44:41;;;;;;;20.67;13.07;;;;;;;-0.52;100.00;96789.13;5015439;28;20459;-72
2021/11/24 08:47:07;;;;;;;23.37;14.03;;;;;;;-0.51;100.00;96789.03;5019593;28;20459;-72
2021/11/24 08:49:33;;;;;;;25.47;14.37;;;;;;;-0.35;100.00;96786.50;5022721;28;20461;-73
2021/11/24 08:51:59;;;;;;;21.53;14.43;;;;;;;-0.20;100.00;96778.88;5032849;28;20459;-72
2021/11/24 08:54:26;;;;;;;20.07;13.13;;;;;;;-0.22;100.00;96776.38;5025745;28;20030;-73
2021/11/24 08:56:52;;;;;;;18.83;12.83;;;;;;;-0.12;100.00;96774.16;5037218;28;20728;-72
2021/11/24 08:59:18;;;;;;;22.70;14.57;;;;;;;0.45;100.00;96767.59;5027601;28;20528;-72
2021/11/24 09:01:44;;;;;;;18.30;13.07;;;;;;;0.81;100.00;96776.00;5041414;28;20468;-72
2021/11/24 09:04:09;;;;;;;17.80;11.70;;;;;;;0.86;100.00;96768.81;5015260;28;20040;-72
2021/11/24 09:06:36;;;;;;;18.47;13.10;;;;;;;1.25;100.00;96767.47;5023468;28;20065;-73
2021/11/24 09:09:06;;;;;;;17.00;12.07;;;;;;;0.62;100.00;96771.84;5023849;28;20116;-73
2021/11/24 09:11:32;;;;;;;17.70;12.17;;;;;;;1.24;100.00;96764.03;5024424;28;20118;-73
2021/11/24 09:13:58;;;;;;;18.63;11.87;;;;;;;1.17;100.00;96765.28;5024128;28;20471;-73
2021/11/24 09:16:24;;;;;;;17.67;11.20;;;;;;;1.26;100.00;96757.00;5038692;28;20559;-72
2021/11/24 09:18:49;;;;;;;18.80;11.90;;;;;;;1.36;100.00;96754.69;5033174;28;20022;-73
2021/11/24 09:21:15;;;;;;;19.30;12.53;;;;;;;1.71;100.00;96754.38;5023760;28;20034;-73
2021/11/24 09:23:44;;;;;;;16.80;11.27;;;;;;;2.41;100.00;96742.25;5031654;28;20041;-73
2021/11/24 09:26:25;;;;;;;15.47;10.70;;;;;;;2.08;100.00;96746.03;5022136;28;20037;-73
2021/11/24 09:28:52;;;;;;;18.23;11.50;;;;;;;2.62;100.00;96744.44;5032106;28;20479;-73
2021/11/24 09:31:18;;;;;;;15.80;10.87;;;;;;;2.28;100.00;96747.41;5027841;28;20471;-73
2021/11/24 09:33:44;;;;;;;14.07;9.90;;;;;;;2.72;100.00;96753.31;5016468;28;20041;-73
2021/11/24 09:36:12;;;;;;;13.57;10.30;;;;;;;1.94;100.00;96748.63;5027846;28;20033;-73
2021/11/24 09:38:38;;;;;;;16.40;11.50;;;;;;;1.96;100.00;96741.59;5028807;28;21131;-73
2021/11/24 09:41:07;;;;;;;15.80;10.33;;;;;;;2.01;100.00;96738.69;5024933;28;20044;-73
2021/11/24 09:43:37;;;;;;;15.73;10.73;;;;;;;2.54;100.00;96730.16;5032247;28;20472;-73
2021/11/24 09:46:04;;;;;;;17.23;11.17;;;;;;;2.53;100.00;96725.06;5051152;28;20510;-74
2021/11/24 09:48:31;;;;;;;17.37;11.17;;;;;;;3.16;100.00;96713.22;5029222;28;21023;-73
2021/11/24 09:50:59;;;;;;;16.33;11.17;;;;;;;3.42;100.00;96709.69;5029822;28;20021;-73
2021/11/24 09:53:28;;;;;;;15.30;10.53;;;;;;;3.85;100.00;96696.34;5026550;28;20050;-73
2021/11/24 09:55:54;;;;;;;14.37;9.17;;;;;;;3.46;100.00;96698.16;5041936;28;20029;-74
2021/11/24 09:58:20;;;;;;;14.83;9.33;;;;;;;3.95;100.00;96697.34;5006933;28;20698;-73
2021/11/24 10:00:46;;;;;;;14.73;9.03;;;;;;;3.00;100.00;96695.19;5028679;28;20030;-73
2021/11/24 10:03:15;;;;;;;15.07;10.07;;;;;;;3.38;100.00;96687.41;5001901;28;20038;-73
2021/11/24 10:05:41;;;;;;;15.50;10.70;;;;;;;3.84;100.00;96681.69;5028201;28;20026;-73
2021/11/24 10:08:07;;;;;;;14.97;10.27;;;;;;;3.43;100.00;96677.56;5021256;28;20086;-73
2021/11/24 10:10:34;;;;;;;14.13;9.37;;;;;;;3.21;100.00;96674.72;5023409;28;20116;-73
2021/11/24 10:13:00;;;;;;;15.13;10.17;;;;;;;3.58;100.00;96672.25;5023989;28;20029;-73
2021/11/24 10:15:45;;;;;;;14.77;8.90;;;;;;;3.38;100.00;96669.22;5027450;28;20034;-73
2021/11/24 10:18:25;;;;;;;14.07;9.77;;;;;;;2.81;100.00;96661.78;5032500;28;20029;-73
2021/11/24 10:21:02;;;;;;;14.13;9.10;;;;;;;3.30;100.00;96648.13;5034642;28;20063;-73
2021/11/24 10:23:43;;;;;;;14.43;10.00;;;;;;;3.12;100.00;96652.81;5037062;28;20057;-73
2021/11/24 10:26:33;;;;;;;14.43;9.50;;;;;;;3.08;100.00;96648.72;5015900;28;20382;-73
2021/11/24 10:29:15;;;;;;;13.77;9.73;;;;;;;2.88;100.00;96660.44;5022129;28;20044;-73
2021/11/24 10:31:45;;;;;;;14.33;9.07;;;;;;;2.69;100.00;96660.03;5026699;28;20033;-73
2021/11/24 10:34:12;;;;;;;12.57;8.80;;;;;;;2.44;100.00;96647.78;5013266;28;20044;-74
2021/11/24 10:37:07;;;;;;;12.30;8.20;;;;;;;2.53;100.00;96642.81;5006749;28;20030;-73
2021/11/24 10:39:32;;;;;;;;;;;;;;;2.29;100.00;96645.25;5021367;28;20618;-73
2021/11/24 10:42:10;;;;;;;16.27;9.37;;;;;;;2.73;100.00;96633.75;5031730;28;19912;-74
2021/11/24 10:44:37;;;;;;;12.80;8.17;;;;;;;2.53;100.00;96626.44;5035768;28;20082;-73
2021/11/24 10:47:07;;;;;;;12.77;8.37;;;;;;;2.50;100.00;96616.25;5011479;28;20078;-74
2021/11/24 10:49:36;;;;;;;12.73;8.70;;;;;;;2.41;100.00;96614.22;5011197;28;20092;-73
2021/11/24 10:52:14;;;;;;;17.83;9.97;;;;;;;2.55;100.00;96609.00;5019451;28;20022;-74
2021/11/24 10:54:41;;;;;;;15.00;9.43;;;;;;;2.53;100.00;96610.84;5020321;28;20034;-74
2021/11/24 10:57:13;;;;;;;13.07;8.90;;;;;;;2.90;100.00;96600.63;5016821;28;20026;-73
2021/11/24 10:59:44;;;;;;;14.57;9.50;;;;;;;2.68;100.00;96599.44;5027195;28;20022;-73
2021/11/24 11:02:21;;;;;;;13.93;9.30;;;;;;;2.69;100.00;96605.50;5026438;28;20041;-73
2021/11/24 11:05:04;;;;;;;12.70;7.77;;;;;;;3.16;97.96;96593.66;5014323;28;20040;-74
2021/11/24 11:07:56;;;;;;;13.57;8.60;;;;;;;2.81;100.00;96586.47;5027703;28;20109;-73
2021/11/24 11:10:31;;;;;;;13.97;9.13;;;;;;;2.95;100.00;96581.19;5019279;28;20045;-73
2021/11/24 11:13:13;;;;;;;13.67;8.20;;;;;;;2.96;100.00;96582.03;5019918;28;20033;-74
2021/11/24 11:15:46;;;;;;;12.30;7.60;;;;;;;2.83;100.00;96571.63;5020190;28;20525;-74